Time;durP1;ratioP1;P1;durP2;ratioP2;P2;SDS_P1;SDS_P2;PMS_P1;PMS_P2;Temp;Humidity;BMP_temperature;BMP_pressure;BME280_temperature;BME280_humidity;BME280_pressure;Samples;Min_cycle;Max_cycle;Signal;HPM_P1;HPM_P2
2023/02/06 00:00:50;;;;;;;35.28;31.63;;;;;;;;;;5097833;28;20199;-82
2023/02/06 00:03:18;;;;;;;33.65;30.63;;;;;;;;;;5098324;28;20262;-83
2023/02/06 00:05:53;;;;;;;39.95;32.38;;;;;;;;;;5098433;28;20232;-82
2023/02/06 00:08:20;;;;;;;33.80;30.77;;;;;;;;;;5098213;28;20208;-83
2023/02/06 00:10:47;;;;;;;36.05;30.00;;;;;;;;;;5098433;28;20274;-83
2023/02/06 00:13:14;;;;;;;32.40;29.58;;;;;;;;;;5097520;28;20207;-81
2023/02/06 00:15:43;;;;;;;33.22;29.77;;;;;;;;;;5098689;28;20234;-82
2023/02/06 00:18:10;;;;;;;31.25;28.25;;;;;;;;;;5098995;28;20296;-82
2023/02/06 00:20:37;;;;;;;30.00;26.92;;;;;;;;;;5098560;28;20259;-83
2023/02/06 00:23:04;;;;;;;30.27;27.50;;;;;;;;;;5097876;28;20239;-83
2023/02/06 00:25:31;;;;;;;30.35;27.58;;;;;;;;;;5097776;28;20350;-83
2023/02/06 00:27:58;;;;;;;30.63;27.40;;;;;;;;;;5098555;28;20251;-82
2023/02/06 00:30:25;;;;;;;32.67;29.20;;;;;;;;;;5097620;28;20228;-82
2023/02/06 00:32:53;;;;;;;31.27;27.77;;;;;;;;;;5097800;28;20205;-82
2023/02/06 00:35:20;;;;;;;29.30;26.15;;;;;;;;;;5098688;28;20230;-82
2023/02/06 00:37:47;;;;;;;30.58;27.45;;;;;;;;;;5098433;28;20197;-83
2023/02/06 00:40:14;;;;;;;30.00;27.33;;;;;;;;;;5097605;28;20755;-83
2023/02/06 00:42:41;;;;;;;34.78;26.30;;;;;;;;;;5098095;28;20197;-83
2023/02/06 00:45:09;;;;;;;29.40;26.40;;;;;;;;;;5097832;28;20523;-83
2023/02/06 00:47:36;;;;;;;29.88;26.75;;;;;;;;;;5098724;28;20255;-83
2023/02/06 00:50:05;;;;;;;31.13;27.77;;;;;;;;;;5098045;28;20204;-83
2023/02/06 00:52:32;;;;;;;30.73;27.15;;;;;;;;;;5097639;28;20209;-82
2023/02/06 00:54:59;;;;;;;29.30;26.65;;;;;;;;;;5097279;28;20225;-83
2023/02/06 00:57:26;;;;;;;33.42;27.63;;;;;;;;;;5097756;28;20209;-83
2023/02/06 00:59:53;;;;;;;28.77;25.70;;;;;;;;;;5098523;28;20259;-83
2023/02/06 01:02:20;;;;;;;31.10;26.63;;;;;;;;;;5096896;28;20209;-82
2023/02/06 01:04:47;;;;;;;29.60;26.35;;;;;;;;;;5096911;28;20286;-83
2023/02/06 01:07:15;;;;;;;31.52;27.85;;;;;;;;;;5097658;28;20733;-82
2023/02/06 01:09:42;;;;;;;33.40;26.50;;;;;;;;;;5098228;28;20202;-82
2023/02/06 01:12:09;;;;;;;39.50;26.38;;;;;;;;;;5096946;28;20257;-83
2023/02/06 01:14:36;;;;;;;30.30;26.45;;;;;;;;;;5099002;28;20566;-83
2023/02/06 01:17:03;;;;;;;29.13;24.80;;;;;;;;;;5104381;28;20213;-83
2023/02/06 01:19:30;;;;;;;32.20;26.92;;;;;;;;;;5104972;28;20208;-83
2023/02/06 01:21:57;;;;;;;39.33;25.58;;;;;;;;;;5103702;28;20205;-82
2023/02/06 01:24:25;;;;;;;27.35;24.50;;;;;;;;;;5104358;28;20615;-83
2023/02/06 01:26:52;;;;;;;28.17;25.30;;;;;;;;;;5103851;28;20268;-83
2023/02/06 01:29:19;;;;;;;32.75;26.10;;;;;;;;;;5105008;28;20205;-82
2023/02/06 01:31:46;;;;;;;31.80;25.45;;;;;;;;;;5103826;28;20222;-83
2023/02/06 01:34:14;;;;;;;31.67;26.98;;;;;;;;;;5104121;28;20674;-82
2023/02/06 01:36:41;;;;;;;39.53;27.80;;;;;;;;;;5103930;28;20702;-82
2023/02/06 01:39:08;;;;;;;32.15;25.77;;;;;;;;;;5103121;28;20212;-83
2023/02/06 01:41:36;;;;;;;29.98;25.85;;;;;;;;;;5103637;28;20224;-82
2023/02/06 01:44:11;;;;;;;28.58;25.10;;;;;;;;;;5104001;28;20199;-82
2023/02/06 01:46:38;;;;;;;27.55;24.73;;;;;;;;;;5104101;28;20566;-82
2023/02/06 01:49:06;;;;;;;33.75;25.25;;;;;;;;;;5104412;28;20608;-81
2023/02/06 01:51:33;;;;;;;34.75;24.77;;;;;;;;;;5102720;28;20216;-82
2023/02/06 01:54:02;;;;;;;36.60;25.88;;;;;;;;;;5104415;28;20226;-83
2023/02/06 01:56:31;;;;;;;29.20;26.10;;;;;;;;;;5104560;28;20229;-82
2023/02/06 01:59:01;;;;;;;31.48;23.85;;;;;;;;;;5104196;28;20213;-83
2023/02/06 02:01:28;;;;;;;29.20;23.85;;;;;;;;;;5103399;28;20220;-82
2023/02/06 02:03:57;;;;;;;29.83;24.67;;;;;;;;;;5103640;28;20212;-82
2023/02/06 02:06:26;;;;;;;31.45;24.08;;;;;;;;;;5103226;28;20233;-83
2023/02/06 02:08:54;;;;;;;27.98;23.65;;;;;;;;;;5104055;28;20205;-83
2023/02/06 02:11:23;;;;;;;27.02;24.63;;;;;;;;;;5102885;28;20230;-81
2023/02/06 02:13:51;;;;;;;28.27;24.13;;;;;;;;;;5104407;28;20262;-83
2023/02/06 02:16:24;;;;;;;35.15;25.52;;;;;;;;;;5104590;28;20228;-82
2023/02/06 02:18:58;;;;;;;30.95;22.98;;;;;;;;;;5103410;28;20218;-82
2023/02/06 02:21:40;;;;;;;29.30;24.60;;;;;;;;;;5103910;28;20242;-82
2023/02/06 02:24:10;;;;;;;29.42;24.10;;;;;;;;;;5103693;28;20621;-82
2023/02/06 02:27:03;;;;;;;26.15;23.27;;;;;;;;;;5101573;28;20319;-82
2023/02/06 02:29:55;;;;;;;35.88;24.75;;;;;;;;;;5101046;28;20200;-83
2023/02/06 02:32:36;;;;;;;30.00;24.67;;;;;;;;;;5100246;28;20231;-83
2023/02/06 02:35:10;;;;;;;26.90;24.20;;;;;;;;;;5100776;28;20244;-82
2023/02/06 02:37:42;;;;;;;27.50;24.23;;;;;;;;;;5100503;28;20187;-82
2023/02/06 02:40:14;;;;;;;26.85;23.15;;;;;;;;;;5100733;28;20242;-83
2023/02/06 02:42:47;;;;;;;31.30;24.10;;;;;;;;;;5099645;28;20624;-83
2023/02/06 02:45:20;;;;;;;29.17;24.90;;;;;;;;;;5099960;28;20221;-82
2023/02/06 02:47:49;;;;;;;30.17;24.42;;;;;;;;;;5099743;28;20544;-84
2023/02/06 02:50:18;;;;;;;27.33;23.30;;;;;;;;;;5100412;28;20205;-81
2023/02/06 02:52:46;;;;;;;27.40;24.50;;;;;;;;;;5099591;28;20228;-82
2023/02/06 02:55:18;;;;;;;25.90;23.25;;;;;;;;;;5099615;28;20280;-82
2023/02/06 02:57:46;;;;;;;33.92;23.23;;;;;;;;;;5100530;28;20216;-83
2023/02/06 03:00:14;;;;;;;32.72;24.15;;;;;;;;;;5100105;28;20203;-83
2023/02/06 03:02:42;;;;;;;26.45;23.85;;;;;;;;;;5099566;28;20265;-83
2023/02/06 03:05:11;;;;;;;28.95;24.00;;;;;;;;;;5099930;28;20225;-82
2023/02/06 03:07:41;;;;;;;29.05;23.75;;;;;;;;;;5100580;28;20246;-82
2023/02/06 03:10:12;;;;;;;26.75;24.23;;;;;;;;;;5100485;28;20230;-82
2023/02/06 03:12:43;;;;;;;28.38;25.13;;;;;;;;;;5098591;28;20645;-82
2023/02/06 03:15:18;;;;;;;28.45;25.02;;;;;;;;;;5100107;28;20287;-83
2023/02/06 03:17:47;;;;;;;26.77;23.73;;;;;;;;;;5100372;28;20189;-82
2023/02/06 03:20:15;;;;;;;32.72;23.98;;;;;;;;;;5099232;28;20737;-82
2023/02/06 03:22:44;;;;;;;35.75;24.50;;;;;;;;;;5099274;28;20209;-83
2023/02/06 03:25:13;;;;;;;26.58;23.70;;;;;;;;;;5099458;28;20218;-82
2023/02/06 03:27:41;;;;;;;29.10;25.75;;;;;;;;;;5099774;28;20200;-84
2023/02/06 03:30:09;;;;;;;28.02;25.30;;;;;;;;;;5099657;28;20208;-83
2023/02/06 03:32:39;;;;;;;29.42;24.48;;;;;;;;;;5098527;28;20262;-83
2023/02/06 03:35:08;;;;;;;29.70;26.00;;;;;;;;;;5098730;28;20231;-82
2023/02/06 03:37:35;;;;;;;27.38;24.20;;;;;;;;;;5099058;28;20209;-83
2023/02/06 03:40:05;;;;;;;29.10;24.05;;;;;;;;;;5099767;28;20226;-82
2023/02/06 03:42:34;;;;;;;25.65;23.23;;;;;;;;;;5099236;28;20215;-83
2023/02/06 03:45:04;;;;;;;30.42;26.58;;;;;;;;;;5099059;28;20839;-83
2023/02/06 03:47:31;;;;;;;26.83;24.27;;;;;;;;;;5098338;28;20211;-82
2023/02/06 03:49:59;;;;;;;26.83;24.10;;;;;;;;;;5099360;28;20209;-83
2023/02/06 03:52:29;;;;;;;29.98;24.98;;;;;;;;;;5099050;28;20267;-83
2023/02/06 03:55:01;;;;;;;29.80;25.30;;;;;;;;;;5099355;28;20228;-83
2023/02/06 03:57:30;;;;;;;29.30;24.60;;;;;;;;;;5098575;28;20276;-82
2023/02/06 03:59:58;;;;;;;33.95;26.30;;;;;;;;;;5098860;28;20270;-82
2023/02/06 04:02:25;;;;;;;38.63;29.98;;;;;;;;;;5098536;28;20263;-82
2023/02/06 04:04:53;;;;;;;27.70;24.73;;;;;;;;;;5098817;28;20294;-82
2023/02/06 04:07:22;;;;;;;40.45;25.63;;;;;;;;;;5098763;28;20205;-83
2023/02/06 04:09:49;;;;;;;29.33;26.00;;;;;;;;;;5098502;28;20210;-83
2023/02/06 04:12:16;;;;;;;32.40;25.77;;;;;;;;;;5098041;28;20220;-82
2023/02/06 04:14:45;;;;;;;32.72;24.95;;;;;;;;;;5099115;28;20230;-83
2023/02/06 04:17:13;;;;;;;34.60;26.15;;;;;;;;;;5098970;28;20245;-83
2023/02/06 04:19:40;;;;;;;46.90;26.15;;;;;;;;;;5098689;28;20208;-81
2023/02/06 04:22:08;;;;;;;37.90;24.63;;;;;;;;;;5098393;28;20226;-83
2023/02/06 04:24:35;;;;;;;34.10;25.08;;;;;;;;;;5098430;28;20749;-82
2023/02/06 04:27:02;;;;;;;41.10;25.42;;;;;;;;;;5098418;28;20204;-83
2023/02/06 04:29:30;;;;;;;43.10;24.35;;;;;;;;;;5098263;28;20268;-82
2023/02/06 04:32:01;;;;;;;37.40;25.77;;;;;;;;;;5097643;28;20278;-81
2023/02/06 04:34:28;;;;;;;44.78;25.00;;;;;;;;;;5097468;28;20551;-82
2023/02/06 04:36:55;;;;;;;30.33;24.65;;;;;;;;;;5097864;28;20296;-82
2023/02/06 04:39:22;;;;;;;44.70;24.13;;;;;;;;;;5097631;28;20208;-82
2023/02/06 04:41:49;;;;;;;42.42;23.35;;;;;;;;;;5096601;28;20203;-82
2023/02/06 04:44:16;;;;;;;38.55;23.63;;;;;;;;;;5097613;28;20199;-82
2023/02/06 04:46:43;;;;;;;42.13;23.50;;;;;;;;;;5097171;28;20204;-82
2023/02/06 04:49:11;;;;;;;44.78;23.50;;;;;;;;;;5097505;28;20204;-82
2023/02/06 04:51:38;;;;;;;48.10;22.60;;;;;;;;;;5097329;28;20229;-82
2023/02/06 04:54:05;;;;;;;59.00;21.67;;;;;;;;;;5097408;28;20671;-81
2023/02/06 04:56:32;;;;;;;29.05;22.10;;;;;;;;;;5097445;28;20232;-84
2023/02/06 04:58:59;;;;;;;83.00;24.25;;;;;;;;;;5097704;28;20220;-81
2023/02/06 05:01:26;;;;;;;33.33;22.92;;;;;;;;;;5097216;28;20212;-82
2023/02/06 05:03:53;;;;;;;65.93;23.25;;;;;;;;;;5097648;28;20212;-81
2023/02/06 05:06:21;;;;;;;66.07;23.75;;;;;;;;;;5097342;28;20275;-82
2023/02/06 05:08:48;;;;;;;45.55;23.73;;;;;;;;;;5097650;28;20224;-82
2023/02/06 05:11:15;;;;;;;67.68;28.13;;;;;;;;;;5097312;28;20206;-83
2023/02/06 05:13:43;;;;;;;62.75;24.35;;;;;;;;;;5097411;28;20227;-82
2023/02/06 05:16:11;;;;;;;58.67;25.30;;;;;;;;;;5096287;28;20224;-82
2023/02/06 05:18:38;;;;;;;48.03;25.65;;;;;;;;;;5097533;28;20208;-81
2023/02/06 05:21:06;;;;;;;64.90;26.13;;;;;;;;;;5097239;28;20204;-81
2023/02/06 05:23:34;;;;;;;75.97;26.35;;;;;;;;;;5097457;28;20199;-81
2023/02/06 05:26:01;;;;;;;49.70;24.50;;;;;;;;;;5096640;28;20225;-81
2023/02/06 05:28:29;;;;;;;33.80;24.77;;;;;;;;;;5096998;28;20209;-82
2023/02/06 05:30:56;;;;;;;28.98;25.98;;;;;;;;;;5097730;28;20207;-82
2023/02/06 05:33:23;;;;;;;47.55;25.38;;;;;;;;;;5096980;28;20267;-82
2023/02/06 05:35:51;;;;;;;31.17;23.50;;;;;;;;;;5097914;28;20269;-82
2023/02/06 05:38:18;;;;;;;44.28;24.67;;;;;;;;;;5097844;28;20192;-82
2023/02/06 05:40:50;;;;;;;63.75;24.30;;;;;;;;;;5097494;28;20212;-82
2023/02/06 05:43:17;;;;;;;40.03;24.00;;;;;;;;;;5096860;28;20185;-82
2023/02/06 05:45:44;;;;;;;53.95;23.40;;;;;;;;;;5097248;28;20228;-82
2023/02/06 05:48:11;;;;;;;76.35;25.17;;;;;;;;;;5097751;28;20202;-82
2023/02/06 05:50:38;;;;;;;47.42;23.88;;;;;;;;;;5097514;28;20238;-82
2023/02/06 05:53:05;;;;;;;87.60;24.50;;;;;;;;;;5096650;28;20257;-82
2023/02/06 05:55:32;;;;;;;52.55;25.08;;;;;;;;;;5097476;28;20220;-82
2023/02/06 05:58:00;;;;;;;101.03;23.50;;;;;;;;;;5097454;28;20212;-81
2023/02/06 06:00:27;;;;;;;35.78;23.13;;;;;;;;;;5097319;28;20611;-81
2023/02/06 06:02:54;;;;;;;70.32;23.38;;;;;;;;;;5101002;28;20212;-81
2023/02/06 06:05:21;;;;;;;46.97;22.13;;;;;;;;;;5100945;28;20269;-82
2023/02/06 06:07:48;;;;;;;57.35;24.58;;;;;;;;;;5100676;28;20224;-82
2023/02/06 06:10:15;;;;;;;39.00;21.88;;;;;;;;;;5101131;28;20663;-82
2023/02/06 06:12:42;;;;;;;54.83;24.00;;;;;;;;;;5100290;28;20225;-82
2023/02/06 06:15:12;;;;;;;45.47;24.05;;;;;;;;;;5101549;28;20633;-82
2023/02/06 06:17:39;;;;;;;56.58;23.88;;;;;;;;;;5101067;28;20621;-82
2023/02/06 06:20:06;;;;;;;44.65;23.02;;;;;;;;;;5100577;28;20276;-82
2023/02/06 06:22:34;;;;;;;45.08;22.58;;;;;;;;;;5100381;28;20201;-82
2023/02/06 06:25:01;;;;;;;49.80;24.33;;;;;;;;;;5100723;28;20294;-82
2023/02/06 06:27:28;;;;;;;42.35;23.30;;;;;;;;;;5100957;28;20208;-82
2023/02/06 06:29:55;;;;;;;76.25;24.70;;;;;;;;;;5100712;28;20614;-82
2023/02/06 06:32:23;;;;;;;44.72;24.60;;;;;;;;;;5099687;28;20273;-83
2023/02/06 06:34:50;;;;;;;57.03;24.20;;;;;;;;;;5100568;28;20227;-82
2023/02/06 06:37:17;;;;;;;42.65;23.67;;;;;;;;;;5099785;28;20659;-82
2023/02/06 06:39:44;;;;;;;26.58;23.38;;;;;;;;;;5099900;28;20192;-82
2023/02/06 06:42:11;;;;;;;41.25;23.30;;;;;;;;;;5100099;28;20208;-82
2023/02/06 06:44:38;;;;;;;37.50;23.63;;;;;;;;;;5100545;28;20253;-83
2023/02/06 06:47:05;;;;;;;34.35;23.70;;;;;;;;;;5100990;28;20205;-82
2023/02/06 06:49:33;;;;;;;35.47;23.33;;;;;;;;;;5099688;28;20209;-80
2023/02/06 06:52:00;;;;;;;50.33;24.10;;;;;;;;;;5099877;28;20611;-83
2023/02/06 06:54:27;;;;;;;36.80;23.70;;;;;;;;;;5100162;28;20223;-82
2023/02/06 06:56:54;;;;;;;39.17;23.83;;;;;;;;;;5100748;28;20258;-83
2023/02/06 06:59:21;;;;;;;41.25;23.42;;;;;;;;;;5100203;28;20726;-83
2023/02/06 07:01:51;;;;;;;32.70;25.17;;;;;;;;;;5099299;28;20204;-83
2023/02/06 07:04:18;;;;;;;32.70;24.65;;;;;;;;;;5098945;28;20214;-82
2023/02/06 07:06:46;;;;;;;47.30;25.52;;;;;;;;;;5100024;28;20205;-82
2023/02/06 07:09:13;;;;;;;35.55;25.45;;;;;;;;;;5100188;28;20201;-82
2023/02/06 07:11:40;;;;;;;42.78;25.67;;;;;;;;;;5098668;28;20212;-82
2023/02/06 07:14:07;;;;;;;51.13;24.83;;;;;;;;;;5098889;28;20216;-81
2023/02/06 07:16:34;;;;;;;50.60;25.40;;;;;;;;;;5097803;28;20246;-79
2023/02/06 07:19:01;;;;;;;28.70;25.38;;;;;;;;;;5098614;28;20208;-80
2023/02/06 07:21:28;;;;;;;39.00;25.20;;;;;;;;;;5098009;28;20259;-78
2023/02/06 07:23:56;;;;;;;37.47;25.58;;;;;;;;;;5099101;28;20194;-80
2023/02/06 07:26:23;;;;;;;31.63;26.10;;;;;;;;;;5099248;28;20224;-80
2023/02/06 07:28:51;;;;;;;65.65;25.88;;;;;;;;;;5098656;28;20676;-79
2023/02/06 07:31:18;;;;;;;42.10;26.02;;;;;;;;;;5097716;28;20632;-81
2023/02/06 07:33:45;;;;;;;47.63;25.45;;;;;;;;;;5098869;28;20294;-79
2023/02/06 07:36:12;;;;;;;46.45;25.48;;;;;;;;;;5098902;28;20225;-80
2023/02/06 07:38:39;;;;;;;32.03;25.05;;;;;;;;;;5099255;28;20237;-79
2023/02/06 07:41:08;;;;;;;50.50;24.65;;;;;;;;;;5099478;28;20260;-79
2023/02/06 07:43:35;;;;;;;51.38;25.80;;;;;;;;;;5098318;28;20231;-80
2023/02/06 07:46:02;;;;;;;57.88;28.42;;;;;;;;;;5097330;28;20246;-79
2023/02/06 07:48:30;;;;;;;36.15;25.38;;;;;;;;;;5098945;28;20202;-80
2023/02/06 07:50:57;;;;;;;30.15;25.13;;;;;;;;;;5098395;28;20732;-80
2023/02/06 07:53:24;;;;;;;29.83;25.27;;;;;;;;;;5098105;28;20625;-80
2023/02/06 07:55:51;;;;;;;51.38;25.83;;;;;;;;;;5098329;28;20232;-80
2023/02/06 07:58:19;;;;;;;26.55;24.15;;;;;;;;;;5098443;28;20251;-79
2023/02/06 08:00:46;;;;;;;35.20;24.58;;;;;;;;;;5098823;28;20203;-80
2023/02/06 08:03:13;;;;;;;28.92;26.33;;;;;;;;;;5096966;28;20302;-80
2023/02/06 08:05:40;;;;;;;26.65;24.20;;;;;;;;;;5097777;28;20232;-80
2023/02/06 08:08:09;;;;;;;28.13;22.85;;;;;;;;;;5097716;28;20270;-79
2023/02/06 08:10:38;;;;;;;26.42;24.23;;;;;;;;;;5097897;28;20254;-80
2023/02/06 08:13:06;;;;;;;25.83;23.30;;;;;;;;;;5098139;28;20223;-80
2023/02/06 08:15:35;;;;;;;47.70;24.60;;;;;;;;;;5097355;28;20219;-79
2023/02/06 08:18:02;;;;;;;31.35;25.42;;;;;;;;;;5097224;28;20663;-80
2023/02/06 08:20:29;;;;;;;29.48;25.35;;;;;;;;;;5097553;28;20230;-80
2023/02/06 08:22:56;;;;;;;28.42;24.98;;;;;;;;;;5097150;28;20650;-80
2023/02/06 08:25:23;;;;;;;30.05;24.23;;;;;;;;;;5096366;28;20233;-80
2023/02/06 08:27:52;;;;;;;29.70;24.23;;;;;;;;;;5096274;28;20204;-79
2023/02/06 08:30:19;;;;;;;39.08;25.10;;;;;;;;;;5096925;28;20205;-79
2023/02/06 08:32:48;;;;;;;27.65;24.95;;;;;;;;;;5096889;28;20249;-80
2023/02/06 08:35:15;;;;;;;46.15;24.90;;;;;;;;;;5096535;28;20234;-79
2023/02/06 08:37:42;;;;;;;36.40;23.35;;;;;;;;;;5095646;28;20208;-79
2023/02/06 08:40:09;;;;;;;30.35;24.70;;;;;;;;;;5096249;28;20213;-79
2023/02/06 08:42:36;;;;;;;35.60;23.83;;;;;;;;;;5095285;28;20650;-79
2023/02/06 08:45:03;;;;;;;27.65;25.10;;;;;;;;;;5096625;28;20561;-79
2023/02/06 08:47:30;;;;;;;28.00;25.55;;;;;;;;;;5096794;28;20208;-79
2023/02/06 08:49:59;;;;;;;25.95;23.52;;;;;;;;;;5096353;28;20325;-78
2023/02/06 08:52:26;;;;;;;29.90;26.27;;;;;;;;;;5093979;28;20205;-78
2023/02/06 08:54:53;;;;;;;33.00;25.05;;;;;;;;;;5093763;28;20281;-78
2023/02/06 08:57:20;;;;;;;28.92;24.90;;;;;;;;;;5094839;28;20192;-80
2023/02/06 08:59:48;;;;;;;26.88;24.20;;;;;;;;;;5095806;28;20258;-78
2023/02/06 09:02:15;;;;;;;28.13;25.33;;;;;;;;;;5093157;28;20328;-79
2023/02/06 09:04:42;;;;;;;27.48;25.23;;;;;;;;;;5094790;28;20225;-77
2023/02/06 09:07:10;;;;;;;28.08;25.05;;;;;;;;;;5093354;28;20218;-78
2023/02/06 09:09:37;;;;;;;35.17;25.00;;;;;;;;;;5093929;28;20556;-78
2023/02/06 09:12:05;;;;;;;28.20;25.30;;;;;;;;;;5093274;28;20260;-77
2023/02/06 09:14:34;;;;;;;41.42;26.95;;;;;;;;;;5093447;28;20222;-77
2023/02/06 09:17:01;;;;;;;32.85;27.35;;;;;;;;;;5091898;28;20204;-78
2023/02/06 09:19:28;;;;;;;33.67;25.10;;;;;;;;;;5092999;28;20281;-77
2023/02/06 09:21:55;;;;;;;28.25;25.33;;;;;;;;;;5092770;28;20204;-77
2023/02/06 09:24:24;;;;;;;29.65;25.27;;;;;;;;;;5093607;28;20232;-78
2023/02/06 09:26:51;;;;;;;33.70;28.60;;;;;;;;;;5094101;28;20265;-80
2023/02/06 09:29:18;;;;;;;28.63;25.85;;;;;;;;;;5095010;28;20213;-83
2023/02/06 09:31:46;;;;;;;35.25;26.15;;;;;;;;;;5077316;28;20713;-84
2023/02/06 09:34:13;;;;;;;29.00;26.70;;;;;;;;;;5079390;28;20217;-85
2023/02/06 09:36:40;;;;;;;27.92;25.27;;;;;;;;;;5081865;28;20699;-84
2023/02/06 09:39:08;;;;;;;29.90;25.73;;;;;;;;;;5084825;28;20213;-87
2023/02/06 09:41:38;;;;;;;30.90;25.73;;;;;;;;;;5086886;28;20202;-88
2023/02/06 09:44:07;;;;;;;38.72;27.52;;;;;;;;;;5085801;28;20586;-85
2023/02/06 09:46:36;;;;;;;30.65;26.40;;;;;;;;;;5095675;28;20252;-86
2023/02/06 09:49:06;;;;;;;34.13;26.48;;;;;;;;;;5106337;28;20201;-85
2023/02/06 09:51:38;;;;;;;34.85;26.55;;;;;;;;;;5106067;28;20676;-85
2023/02/06 09:54:08;;;;;;;30.40;25.92;;;;;;;;;;5105928;28;20593;-85
2023/02/06 09:56:38;;;;;;;34.13;26.70;;;;;;;;;;5106616;28;20294;-85
2023/02/06 09:59:09;;;;;;;31.88;26.85;;;;;;;;;;5103099;28;20209;-78
2023/02/06 10:01:39;;;;;;;37.38;26.05;;;;;;;;;;5100017;28;20217;-79
2023/02/06 10:04:21;;;;;;;34.47;27.25;;;;;;;;;;5098784;28;20567;-76
2023/02/06 10:06:52;;;;;;;36.78;27.00;;;;;;;;;;5100816;28;20242;-78
2023/02/06 10:09:21;;;;;;;32.92;28.60;;;;;;;;;;5101381;28;20220;-81
2023/02/06 10:11:53;;;;;;;32.05;28.58;;;;;;;;;;5101487;28;20205;-85
2023/02/06 10:14:22;;;;;;;32.67;29.40;;;;;;;;;;5102858;28;20252;-86
2023/02/06 10:16:53;;;;;;;42.67;27.77;;;;;;;;;;5102024;28;20209;-82
2023/02/06 10:19:22;;;;;;;31.98;27.13;;;;;;;;;;5099404;28;20234;-85
2023/02/06 10:21:52;;;;;;;34.17;27.55;;;;;;;;;;5102369;28;20195;-84
2023/02/06 10:24:24;;;;;;;34.83;25.85;;;;;;;;;;5103056;28;20264;-84
2023/02/06 10:26:53;;;;;;;42.13;29.98;;;;;;;;;;5102249;28;20263;-83
2023/02/06 10:29:23;;;;;;;31.70;28.38;;;;;;;;;;5101671;28;20209;-83
2023/02/06 10:31:55;;;;;;;30.65;27.30;;;;;;;;;;5100337;28;20265;-83
2023/02/06 10:34:27;;;;;;;33.15;28.90;;;;;;;;;;5098876;28;20258;-77
2023/02/06 10:37:00;;;;;;;31.30;28.00;;;;;;;;;;5096415;28;20263;-77
2023/02/06 10:39:42;;;;;;;38.63;28.92;;;;;;;;;;5096581;28;20189;-76
2023/02/06 10:42:14;;;;;;;34.17;26.95;;;;;;;;;;5093600;28;20203;-78
2023/02/06 10:44:43;;;;;;;35.40;29.17;;;;;;;;;;5096047;28;20224;-77
2023/02/06 10:47:16;;;;;;;35.67;28.70;;;;;;;;;;5096920;28;20220;-84
2023/02/06 10:49:45;;;;;;;31.40;28.05;;;;;;;;;;5098287;28;20594;-84
2023/02/06 10:52:18;;;;;;;31.27;27.40;;;;;;;;;;5106349;28;20205;-85
2023/02/06 10:54:49;;;;;;;33.47;27.65;;;;;;;;;;5104846;28;20233;-86
2023/02/06 10:57:20;;;;;;;30.38;27.17;;;;;;;;;;5100707;28;20202;-78
2023/02/06 10:59:50;;;;;;;31.55;28.15;;;;;;;;;;5101219;28;20338;-82
2023/02/06 11:02:19;;;;;;;30.90;27.52;;;;;;;;;;5102626;28;20576;-85
2023/02/06 11:04:50;;;;;;;35.15;29.60;;;;;;;;;;5103415;28;20221;-84
2023/02/06 11:07:20;;;;;;;43.05;29.45;;;;;;;;;;5102693;28;20207;-84
2023/02/06 11:09:47;;;;;;;38.03;29.40;;;;;;;;;;5101262;28;20213;-84
2023/02/06 11:12:23;;;;;;;35.13;30.88;;;;;;;;;;5100696;28;20198;-84
2023/02/06 11:14:51;;;;;;;31.58;28.33;;;;;;;;;;5099601;28;20229;-84
2023/02/06 11:17:19;;;;;;;33.88;29.85;;;;;;;;;;5102299;28;20210;-84
2023/02/06 11:19:49;;;;;;;34.20;30.38;;;;;;;;;;5103511;28;20205;-85
2023/02/06 11:22:17;;;;;;;32.03;28.83;;;;;;;;;;5102496;28;20205;-85
2023/02/06 11:24:58;;;;;;;30.52;27.40;;;;;;;;;;5102749;28;20806;-84
2023/02/06 11:27:27;;;;;;;30.55;27.25;;;;;;;;;;5102965;28;20206;-84
2023/02/06 11:29:54;;;;;;;33.72;30.25;;;;;;;;;;5104072;28;20262;-85
2023/02/06 11:32:34;;;;;;;36.45;27.73;;;;;;;;;;5102636;28;20643;-84
2023/02/06 11:35:03;;;;;;;36.92;28.13;;;;;;;;;;5103252;28;20266;-85
2023/02/06 11:37:31;;;;;;;37.15;30.42;;;;;;;;;;5103391;28;20213;-84
2023/02/06 11:40:13;;;;;;;32.88;28.05;;;;;;;;;;5104302;28;20208;-82
2023/02/06 11:42:42;;;;;;;29.98;26.17;;;;;;;;;;5096941;28;20189;-79
2023/02/06 11:45:19;;;;;;;35.55;29.83;;;;;;;;;;5097112;28;20263;-80
2023/02/06 11:47:46;;;;;;;28.30;25.23;;;;;;;;;;5096763;28;20217;-80
2023/02/06 11:50:21;;;;;;;33.05;27.77;;;;;;;;;;5097587;28;20205;-79
2023/02/06 11:52:48;;;;;;;30.00;26.95;;;;;;;;;;5096773;28;20631;-80
2023/02/06 11:55:21;;;;;;;30.35;26.38;;;;;;;;;;5097000;28;20230;-80
2023/02/06 11:58:01;;;;;;;31.30;27.58;;;;;;;;;;5097674;28;20624;-79
2023/02/06 12:00:29;;;;;;;30.60;27.48;;;;;;;;;;5097160;28;20201;-80
2023/02/06 12:02:56;;;;;;;32.60;26.52;;;;;;;;;;5096550;28;20687;-80
2023/02/06 12:05:25;;;;;;;33.42;27.35;;;;;;;;;;5097039;28;20225;-80
2023/02/06 12:07:53;;;;;;;29.88;26.88;;;;;;;;;;5097105;28;20247;-80
2023/02/06 12:10:22;;;;;;;34.65;26.02;;;;;;;;;;5098212;28;20205;-80
2023/02/06 12:12:51;;;;;;;26.75;24.00;;;;;;;;;;5097476;28;20201;-80
2023/02/06 12:15:20;;;;;;;31.05;27.90;;;;;;;;;;5096915;28;20241;-79
2023/02/06 12:17:54;;;;;;;31.58;27.25;;;;;;;;;;5098369;28;20273;-80
2023/02/06 12:20:23;;;;;;;29.90;26.85;;;;;;;;;;5096822;28;20254;-90
2023/02/06 12:22:52;;;;;;;30.70;27.55;;;;;;;;;;5098247;28;20220;-79
2023/02/06 12:25:25;;;;;;;31.63;27.52;;;;;;;;;;5099724;28;20260;-86
2023/02/06 12:27:53;;;;;;;36.03;29.08;;;;;;;;;;5099718;28;20186;-85
2023/02/06 12:30:29;;;;;;;35.03;29.25;;;;;;;;;;5099435;28;20547;-85
2023/02/06 12:33:00;;;;;;;31.73;27.40;;;;;;;;;;5098268;28;20266;-84
2023/02/06 12:35:32;;;;;;;30.80;27.55;;;;;;;;;;5098395;28;20274;-84
2023/02/06 12:38:00;;;;;;;37.85;30.00;;;;;;;;;;5098682;28;20190;-84
2023/02/06 12:40:38;;;;;;;32.22;27.70;;;;;;;;;;5097239;28;20214;-84
2023/02/06 12:43:08;;;;;;;33.13;29.63;;;;;;;;;;5097796;28;20213;-83
2023/02/06 12:45:41;;;;;;;31.75;28.20;;;;;;;;;;5100019;28;20225;-86
2023/02/06 12:48:13;;;;;;;33.00;28.10;;;;;;;;;;5099087;28;20219;-78
2023/02/06 12:50:42;;;;;;;30.58;27.30;;;;;;;;;;5094519;28;20306;-77
2023/02/06 12:53:13;;;;;;;30.17;26.90;;;;;;;;;;5094441;28;20275;-82
2023/02/06 12:55:42;;;;;;;35.00;28.23;;;;;;;;;;5095986;28;20222;-78
2023/02/06 12:58:23;;;;;;;35.30;29.63;;;;;;;;;;5093817;28;20518;-78
2023/02/06 13:00:55;;;;;;;36.33;29.27;;;;;;;;;;5093447;28;20223;-78
2023/02/06 13:03:30;;;;;;;37.60;28.00;;;;;;;;;;5094624;28;20784;-82
2023/02/06 13:06:02;;;;;;;37.67;29.05;;;;;;;;;;5093043;28;20224;-78
2023/02/06 13:08:31;;;;;;;35.00;29.35;;;;;;;;;;5094478;28;20189;-78
2023/02/06 13:11:02;;;;;;;32.78;28.30;;;;;;;;;;5096958;28;20255;-81
2023/02/06 13:13:30;;;;;;;34.03;27.85;;;;;;;;;;5095766;28;20728;-81
2023/02/06 13:16:00;;;;;;;40.53;30.15;;;;;;;;;;5095814;28;20286;-81
2023/02/06 13:18:37;;;;;;;34.92;31.15;;;;;;;;;;5097960;28;20293;-81
2023/02/06 13:21:17;;;;;;;34.10;29.65;;;;;;;;;;5097589;28;20231;-81
2023/02/06 13:23:51;;;;;;;39.30;30.10;;;;;;;;;;5097682;28;20564;-81
2023/02/06 13:26:19;;;;;;;37.63;30.95;;;;;;;;;;5097574;28;20226;-81
2023/02/06 13:28:57;;;;;;;40.63;31.17;;;;;;;;;;5097900;28;20209;-81
2023/02/06 13:31:27;;;;;;;36.03;30.95;;;;;;;;;;5097245;28;20558;-82
2023/02/06 13:33:56;;;;;;;40.97;31.80;;;;;;;;;;5097692;28;20209;-81
2023/02/06 13:36:40;;;;;;;36.65;32.90;;;;;;;;;;5097425;28;20229;-80
2023/02/06 13:39:15;;;;;;;36.17;29.73;;;;;;;;;;5098128;28;20189;-81
2023/02/06 13:41:43;;;;;;;36.22;29.38;;;;;;;;;;5096780;28;20657;-82
2023/02/06 13:44:15;;;;;;;40.75;28.17;;;;;;;;;;5097353;28;20720;-81
2023/02/06 13:47:00;;;;;;;40.20;31.38;;;;;;;;;;5096930;28;20728;-81
2023/02/06 13:49:37;;;;;;;40.97;31.58;;;;;;;;;;5097016;28;20206;-81
2023/02/06 13:52:07;;;;;;;34.38;30.08;;;;;;;;;;5096846;28;20239;-81
2023/02/06 13:54:44;;;;;;;35.78;31.88;;;;;;;;;;5096988;28;20198;-81
2023/02/06 13:57:18;;;;;;;39.45;31.52;;;;;;;;;;5097370;28;20190;-80
2023/02/06 13:59:46;;;;;;;37.65;29.58;;;;;;;;;;5097382;28;20235;-80
2023/02/06 14:02:16;;;;;;;35.88;30.73;;;;;;;;;;5096660;28;20236;-80
2023/02/06 14:04:46;;;;;;;34.97;31.20;;;;;;;;;;5097469;28;20241;-81
2023/02/06 14:07:25;;;;;;;29.02;26.17;;;;;;;;;;5097175;28;20266;-80
2023/02/06 14:12:52;;;;;;;30.40;27.23;;;;;;;;;;5096033;28;20209;-82
2023/02/06 14:15:27;;;;;;;29.77;25.73;;;;;;;;;;5080939;28;20293;-79
2023/02/06 14:18:03;;;;;;;27.73;24.77;;;;;;;;;;5097309;28;20196;-86
2023/02/06 14:20:34;;;;;;;29.42;25.60;;;;;;;;;;5097860;28;20186;-84
2023/02/06 14:23:05;;;;;;;27.08;24.33;;;;;;;;;;5099529;28;20247;-85
2023/02/06 14:25:41;;;;;;;28.42;25.50;;;;;;;;;;5101686;28;20687;-85
2023/02/06 14:28:15;;;;;;;28.27;23.92;;;;;;;;;;5102077;28;20194;-88
2023/02/06 14:30:45;;;;;;;27.10;24.63;;;;;;;;;;5102425;28;20663;-86